Entiat, WA (98822)

4:15 PM PDT on April 01, 2015 (GMT -0700)
RAWS | | Change Station
CLOSE
Current Station
Personal Weather Station
Location: Entiat, WA
Elevation: 795 ft
Nearby Weather Stations

Elev 795 ft 47.67 °N, 120.21 °W | Updated 50 minutes ago

Partly Cloudy
Partly Cloudy
60 °F
Feels Like 60 °F
N
11
Wind Variable Wind from WSW
Gusts 20.0 mph

Today
High -- | Low -- °F
--% Chance of Precip.
Yesterday
High -- | Low -- °F
Precip. -- in
6:40 AM 7:30 PM
Waxing Gibbous, 94% visible
Pressure 30.10 in
Visibility 10.0 miles
Clouds Clear
Dew Point 24 °F
Humidity 25%
Rainfall in
Snow Depth Not available.
UV 4 out of 12
Pollen 10.20 out of 12
Air Quality Not available.
Flu Activity Not available.
METAR KEAT 012255Z AUTO 31016G20KT 10SM CLR 14/M08 A3010 RMK AO2 SLP193 T01441078

More Conditions Fewer Conditions

Pressure 30.10 in
Visibility 10.0 miles
Clouds Clear
Dew Point 24 °F
Humidity 25%
Rainfall in
Snow Depth Not available.
UV 4 out of 12
Pollen 10.20 out of 12
Air Quality Not available.
Flu Activity Not available.
METAR KEAT 012255Z AUTO 31016G20KT 10SM CLR 14/M08 A3010 RMK AO2 SLP193 T01441078

More Conditions Fewer Conditions

10-Day Weather Forecast

Almanac

Astronomy

Apr. 01, 2015 Rise Set
Actual Time
Civil Twilight
Nautical Twilight
Astronomical Twilight
Moon
Length of Visible Light
Length of Day
Tomorrow will be .
, % of the Moon is Illuminated

Today's Extremes

State Highs State Lows

Community

WunderPhotos

Upload Photos

1,810,113 photos uploaded!

WunderBlogs® & News

Nearby

Air Quality

  Air Quality AQ Index Pollutant
Not available.

Snow Depth

Station Depth Elevation

Earthquake Activity

City Distance Mag. Time & Date
Minimum magnitude displayed is 2.5.

Coastal Water Temperatures

Place Temperature

Stations

Nearby Weather Stations

Station Location Temp. Windchill Dew Point Humidity Wind Precip. Elev Updated Type